Terminal Aerodrome Forecast
Issued by NWS

Home | Current Version | Previous Version | Text Only | Print | Product List | Glossary On
Versions: 1 2 3 4 5 6 7 8 9 10 11 12 13 14 15 16 17
000
FTUS44 KSJT 070500
TAFBBD
TAF
KBBD 070537Z 0706/0806 14015KT P6SM SCT015 BKN035
     FM070700 14014KT P6SM OVC012
     FM071000 15011KT 4SM BR OVC007
     FM071400 15012KT P6SM BKN015
     FM072000 15011KT P6SM SCT050=

USA.gov is the U.S. government's official web portal to all federal, state and local government web resources and services.